Terminal Aerodrome Forecast
Issued by NWS Mt. Holly, NJ

Home | Current Version | Previous Version | Text Only | Print | Product List | Glossary On
Versions: 1 2 3 4 5 6 7 8 9 10 11 12 13 14 15 16 17 18 19 20 21
150
FTUS41 KPHI 022357
TAFABE
TAF
KABE 022357Z 0300/0324 VRB03KT P6SM SCT070 OVC100
     FM030400 07004KT 6SM -SHRA OVC025
     FM030600 05005KT 4SM -SHRA BR OVC015
     FM030700 02004KT 3SM -SHRA BR OVC001
     FM031100 04006KT 6SM -DZ BR OVC007
     FM031600 05008KT P6SM OVC012
     FM032100 07005KT P6SM OVC025=

USA.gov is the U.S. government's official web portal to all federal, state and local government web resources and services.